Time;durP1;ratioP1;P1;durP2;ratioP2;P2;SDS_P1;SDS_P2;PMS_P1;PMS_P2;Temp;Humidity;BMP_temperature;BMP_pressure;BME280_temperature;BME280_humidity;BME280_pressure;Samples;Min_cycle;Max_cycle;Signal;HPM_P1;HPM_P2
2021/11/29 00:02:13;;;;;;;4.17;3.80;;;;;;;11.57;89.18;99691.48;1783659;80;20877;-79
2021/11/29 00:04:40;;;;;;;4.47;3.87;;;;;;;11.58;89.15;99699.70;1783712;80;20845;-81
2021/11/29 00:07:09;;;;;;;5.65;4.72;;;;;;;11.58;89.03;99700.56;1784024;80;20896;-82
2021/11/29 00:09:36;;;;;;;5.00;4.50;;;;;;;11.57;89.00;99698.88;1784278;80;20861;-80
2021/11/29 00:12:08;;;;;;;8.48;5.85;;;;;;;11.56;88.98;99697.67;1784002;80;20924;-80
2021/11/29 00:14:35;;;;;;;8.55;6.25;;;;;;;11.53;89.01;99691.36;1783732;80;20979;-80
2021/11/29 00:17:04;;;;;;;9.35;6.53;;;;;;;11.52;89.05;99696.27;1783685;80;20913;-81
2021/11/29 00:19:30;;;;;;;9.00;6.20;;;;;;;11.52;89.07;99698.41;1783663;80;21403;-80
2021/11/29 00:21:59;;;;;;;8.08;7.03;;;;;;;11.51;89.14;99698.04;1783626;80;20849;-81
2021/11/29 00:24:26;;;;;;;8.05;6.50;;;;;;;11.51;89.15;99698.04;1783599;80;21124;-81
2021/11/29 00:26:53;;;;;;;12.63;7.40;;;;;;;11.49;89.21;99708.31;1779308;80;21409;-80
2021/11/29 00:29:20;;;;;;;9.90;7.72;;;;;;;11.48;89.29;99701.41;1775256;80;20924;-79
2021/11/29 00:31:50;;;;;;;12.03;7.78;;;;;;;11.47;89.32;99701.89;1775275;80;21315;-80
2021/11/29 00:34:16;;;;;;;8.88;7.58;;;;;;;11.46;89.38;99700.20;1775486;80;20884;-79
2021/11/29 00:36:45;;;;;;;11.28;8.40;;;;;;;11.46;89.43;99702.83;1775458;80;20983;-79
2021/11/29 00:39:12;;;;;;;12.53;7.87;;;;;;;11.47;89.51;99703.66;1775751;80;20916;-80
2021/11/29 00:41:40;;;;;;;11.12;9.53;;;;;;;11.47;89.62;99704.97;1775513;80;20849;-79
2021/11/29 00:44:08;;;;;;;13.25;9.55;;;;;;;11.45;89.60;99702.94;1775413;80;21029;-79
2021/11/29 00:46:35;;;;;;;16.27;9.18;;;;;;;11.45;89.73;99706.42;1775314;80;21370;-80
2021/11/29 00:49:03;;;;;;;13.22;8.88;;;;;;;11.47;89.73;99704.52;1775369;80;21550;-80
2021/11/29 00:51:31;;;;;;;13.38;9.68;;;;;;;11.49;89.77;99701.27;1775160;80;21011;-80
2021/11/29 00:54:00;;;;;;;13.78;9.28;;;;;;;11.50;89.81;99707.38;1775539;80;20916;-79
2021/11/29 00:56:28;;;;;;;11.78;9.73;;;;;;;11.51;89.85;99695.90;1775159;80;20928;-79
2021/11/29 00:58:55;;;;;;;11.43;9.10;;;;;;;11.51;89.85;99694.10;1775550;80;20906;-80
2021/11/29 01:01:22;;;;;;;16.40;11.10;;;;;;;11.53;89.92;99697.93;1775393;80;21523;-82
2021/11/29 01:03:49;;;;;;;13.08;9.25;;;;;;;11.54;89.89;99695.67;1775516;80;21379;-81
2021/11/29 01:06:16;;;;;;;14.50;9.95;;;;;;;11.55;89.87;99695.53;1775293;80;20870;-80
2021/11/29 01:08:43;;;;;;;12.95;9.50;;;;;;;11.57;89.78;99691.00;1775559;80;20901;-79
2021/11/29 01:11:10;;;;;;;15.43;9.35;;;;;;;11.57;89.81;99680.50;1775240;80;20935;-80
2021/11/29 01:13:37;;;;;;;13.45;10.00;;;;;;;11.57;89.79;99673.11;1775375;80;21139;-80
2021/11/29 01:16:04;;;;;;;12.35;9.75;;;;;;;11.56;89.77;99668.34;1775441;80;20896;-81
2021/11/29 01:18:31;;;;;;;10.23;9.05;;;;;;;11.56;89.80;99670.97;1775378;80;21446;-80
2021/11/29 01:20:58;;;;;;;9.58;8.45;;;;;;;11.57;89.86;99673.11;1775310;80;20951;-81
2021/11/29 01:23:25;;;;;;;13.10;9.13;;;;;;;11.58;89.92;99674.30;1775426;80;20983;-80
2021/11/29 01:25:54;;;;;;;15.40;10.43;;;;;;;11.59;89.90;99674.64;1775336;80;21995;-81
2021/11/29 01:28:22;;;;;;;16.80;11.08;;;;;;;11.61;89.93;99677.16;1783028;80;20880;-80
2021/11/29 01:30:49;;;;;;;14.63;10.40;;;;;;;11.60;90.02;99672.39;1783652;80;20927;-82
2021/11/29 01:33:18;;;;;;;14.15;11.10;;;;;;;11.60;90.13;99659.72;1783966;80;20908;-81
2021/11/29 01:35:45;;;;;;;14.28;10.53;;;;;;;11.60;90.25;99647.91;1783797;80;20924;-80
2021/11/29 01:38:11;;;;;;;15.48;10.70;;;;;;;11.61;90.31;99653.04;1783863;80;22019;-81
2021/11/29 01:40:39;;;;;;;13.98;11.25;;;;;;;11.63;90.45;99648.98;1783493;80;20869;-79
2021/11/29 01:43:09;;;;;;;17.60;12.03;;;;;;;11.68;90.42;99649.44;1783956;80;20900;-80
2021/11/29 01:45:48;;;;;;;17.67;11.03;;;;;;;11.72;90.40;99643.48;1783559;80;20972;-80
2021/11/29 01:48:15;;;;;;;13.88;10.13;;;;;;;11.75;90.23;99636.66;1783833;80;20880;-81
2021/11/29 01:50:46;;;;;;;13.98;10.48;;;;;;;11.77;90.13;99634.25;1783798;80;21080;-81
2021/11/29 01:53:12;;;;;;;10.60;8.90;;;;;;;11.75;90.07;99623.03;1783711;80;21449;-80
2021/11/29 01:55:41;;;;;;;13.65;10.43;;;;;;;11.76;90.09;99623.41;1783597;80;20943;-80
2021/11/29 01:58:08;;;;;;;10.72;8.25;;;;;;;11.77;90.05;99615.05;1783513;80;20912;-82
2021/11/29 02:00:40;;;;;;;10.82;9.30;;;;;;;11.79;89.97;99624.95;1783806;80;20920;-81
2021/11/29 02:03:07;;;;;;;11.88;9.93;;;;;;;11.80;89.85;99625.28;1785048;80;21079;-80
2021/11/29 02:05:34;;;;;;;9.90;8.38;;;;;;;11.82;89.89;99620.26;1784448;80;21492;-80
2021/11/29 02:08:01;;;;;;;16.62;11.15;;;;;;;11.85;89.77;99616.58;1783788;80;21006;-79
2021/11/29 02:10:28;;;;;;;13.30;9.98;;;;;;;11.87;89.60;99614.63;1783697;80;20869;-79
2021/11/29 02:12:56;;;;;;;11.28;9.35;;;;;;;11.88;89.50;99607.15;1783866;80;20975;-80
2021/11/29 02:15:23;;;;;;;15.65;10.50;;;;;;;11.89;89.39;99606.17;1783500;80;21374;-80
2021/11/29 02:17:50;;;;;;;16.37;11.38;;;;;;;11.89;89.18;99605.35;1783568;80;20845;-81
2021/11/29 02:20:18;;;;;;;16.15;10.85;;;;;;;11.88;89.12;99607.15;1783831;80;21385;-80
2021/11/29 02:22:45;;;;;;;16.42;11.55;;;;;;;11.88;89.14;99604.52;1783752;80;20920;-79
2021/11/29 02:25:15;;;;;;;17.17;11.40;;;;;;;11.88;89.06;99614.20;1783821;80;21448;-79
2021/11/29 02:27:43;;;;;;;18.95;12.00;;;;;;;11.86;89.10;99607.72;1784469;80;21982;-78
2021/11/29 02:30:12;;;;;;;18.05;11.28;;;;;;;11.85;89.10;99604.75;1784834;80;20837;-79
2021/11/29 02:32:40;;;;;;;18.27;12.78;;;;;;;11.87;89.15;99601.49;1784011;80;20896;-80
2021/11/29 02:35:08;;;;;;;19.82;12.05;;;;;;;11.87;89.12;99592.78;1783785;80;20923;-80
2021/11/29 02:37:36;;;;;;;17.52;12.75;;;;;;;11.86;89.20;99585.88;1783882;80;20957;-80
2021/11/29 02:40:05;;;;;;;15.28;12.23;;;;;;;11.86;89.25;99591.13;1783664;80;21155;-81
2021/11/29 02:42:33;;;;;;;17.10;12.73;;;;;;;11.86;89.29;99593.27;1783742;80;20931;-81
2021/11/29 02:45:00;;;;;;;16.12;12.30;;;;;;;11.85;89.34;99588.98;1783928;80;21512;-80
2021/11/29 02:47:27;;;;;;;14.80;11.90;;;;;;;11.82;89.42;99579.54;1784175;80;21362;-81
2021/11/29 02:49:54;;;;;;;15.10;12.63;;;;;;;11.81;89.54;99570.01;1783962;80;20892;-80
2021/11/29 02:52:21;;;;;;;15.23;12.35;;;;;;;11.81;89.70;99570.01;1783668;80;22091;-79
2021/11/29 02:54:50;;;;;;;16.32;12.85;;;;;;;11.85;89.75;99569.74;1783723;80;21291;-80
2021/11/29 02:57:20;;;;;;;14.63;11.57;;;;;;;11.86;89.78;99574.88;1784234;80;20829;-79
2021/11/29 02:59:47;;;;;;;16.25;11.63;;;;;;;11.88;89.73;99570.37;1783907;80;20884;-79
2021/11/29 03:02:18;;;;;;;16.40;11.93;;;;;;;11.88;89.67;99563.80;1783702;80;20892;-79
2021/11/29 03:04:46;;;;;;;14.47;10.88;;;;;;;11.90;89.70;99555.80;1784071;80;21757;-79
2021/11/29 03:07:13;;;;;;;17.50;11.35;;;;;;;11.89;89.61;99554.95;1783670;80;20915;-79
2021/11/29 03:09:40;;;;;;;15.13;11.38;;;;;;;11.88;89.66;99559.86;1784011;80;20927;-79
2021/11/29 03:12:09;;;;;;;16.30;11.48;;;;;;;11.89;89.61;99558.06;1783798;80;20901;-78
2021/11/29 03:14:38;;;;;;;13.62;11.95;;;;;;;11.88;89.56;99557.23;1784234;80;20884;-80
2021/11/29 03:17:06;;;;;;;15.93;11.80;;;;;;;11.90;89.40;99562.38;1783706;80;21011;-78
2021/11/29 03:19:38;;;;;;;19.00;12.53;;;;;;;11.90;89.47;99563.69;1783874;80;20928;-79
2021/11/29 03:22:10;;;;;;;16.60;12.33;;;;;;;11.90;89.41;99559.75;1784159;80;20872;-79
2021/11/29 03:24:37;;;;;;;16.95;12.50;;;;;;;11.92;89.44;99567.84;1783815;80;20985;-79
2021/11/29 03:27:05;;;;;;;19.32;12.60;;;;;;;11.92;89.40;99573.10;1784220;80;21007;-78
2021/11/29 03:29:31;;;;;;;16.73;11.18;;;;;;;11.94;89.28;99566.38;1776661;80;21074;-80
2021/11/29 03:32:00;;;;;;;15.95;11.95;;;;;;;11.96;89.14;99559.21;1753703;80;21379;-80
2021/11/29 03:34:28;;;;;;;14.95;12.28;;;;;;;11.98;89.17;99558.61;1776087;80;20964;-78
2021/11/29 03:36:56;;;;;;;17.40;13.55;;;;;;;11.98;88.90;99555.52;1775494;80;21504;-79
2021/11/29 03:39:25;;;;;;;16.60;12.37;;;;;;;11.96;88.74;99545.63;1775876;80;20979;-80
2021/11/29 03:41:56;;;;;;;15.75;12.65;;;;;;;11.94;88.50;99541.42;1775834;80;21136;-80
2021/11/29 03:44:23;;;;;;;13.90;11.40;;;;;;;11.93;88.56;99541.09;1775973;80;20964;-80
2021/11/29 03:46:52;;;;;;;12.88;10.60;;;;;;;11.93;88.67;99543.72;1775936;80;20924;-80
2021/11/29 03:49:18;;;;;;;12.58;8.95;;;;;;;11.93;88.69;99551.11;1775719;80;20877;-80
2021/11/29 03:51:46;;;;;;;11.95;9.58;;;;;;;11.93;88.55;99545.86;1775741;80;20927;-80
2021/11/29 03:54:13;;;;;;;11.75;9.85;;;;;;;11.94;88.52;99548.00;1775720;80;21773;-79
2021/11/29 03:56:40;;;;;;;14.03;11.60;;;;;;;11.94;88.51;99555.42;1775681;80;20927;-80
2021/11/29 03:59:07;;;;;;;14.50;11.28;;;;;;;11.93;88.52;99547.66;1776121;80;20916;-80
2021/11/29 04:01:34;;;;;;;12.20;10.45;;;;;;;11.94;88.44;99546.69;1775670;80;20944;-79
2021/11/29 04:04:03;;;;;;;13.43;10.30;;;;;;;11.96;88.20;99551.33;1775936;80;21007;-79
2021/11/29 04:06:30;;;;;;;9.98;8.63;;;;;;;11.95;88.24;99554.45;1775625;80;22020;-79
2021/11/29 04:08:59;;;;;;;11.63;9.95;;;;;;;11.95;88.23;99563.64;1775420;80;21431;-79
2021/11/29 04:11:26;;;;;;;12.35;10.53;;;;;;;11.95;88.28;99560.19;1775797;80;20913;-79
2021/11/29 04:13:52;;;;;;;14.35;11.53;;;;;;;11.94;88.18;99556.73;1775510;80;21015;-80
2021/11/29 04:16:19;;;;;;;16.57;12.15;;;;;;;11.91;88.16;99554.34;1775778;80;20939;-81
2021/11/29 04:18:47;;;;;;;17.15;12.15;;;;;;;11.92;88.02;99549.95;1776897;80;22030;-81
2021/11/29 04:21:14;;;;;;;12.43;11.12;;;;;;;11.89;87.97;99552.32;1776059;80;20959;-80
2021/11/29 04:23:44;;;;;;;12.00;10.48;;;;;;;11.86;87.90;99549.92;1775806;80;20845;-79
2021/11/29 04:26:14;;;;;;;11.25;9.88;;;;;;;11.82;87.98;99542.77;1775724;80;20931;-78
2021/11/29 04:28:41;;;;;;;14.95;10.82;;;;;;;11.80;88.11;99556.53;1775451;80;20892;-79
2021/11/29 04:31:08;;;;;;;13.15;10.60;;;;;;;11.78;88.28;99554.97;1775750;80;21144;-79
2021/11/29 04:33:35;;;;;;;15.38;11.60;;;;;;;11.77;88.35;99550.69;1775429;80;20964;-79
2021/11/29 04:36:02;;;;;;;12.50;10.38;;;;;;;11.76;88.40;99539.36;1776159;80;21489;-78
2021/11/29 04:38:30;;;;;;;12.43;10.32;;;;;;;11.76;88.45;99540.67;1775696;80;20900;-79
2021/11/29 04:40:59;;;;;;;11.95;10.00;;;;;;;11.77;88.45;99537.55;1775502;80;20869;-79
2021/11/29 04:43:26;;;;;;;14.98;11.90;;;;;;;11.77;88.35;99525.25;1775461;80;21116;-80
2021/11/29 04:45:54;;;;;;;13.93;12.25;;;;;;;11.78;88.27;99519.51;1775377;80;21522;-82
2021/11/29 04:48:21;;;;;;;15.30;13.53;;;;;;;11.76;88.13;99523.59;1775334;80;20928;-80
2021/11/29 04:50:48;;;;;;;17.37;13.43;;;;;;;11.73;88.06;99519.89;1775390;80;20900;-79
2021/11/29 04:53:15;;;;;;;19.30;13.90;;;;;;;11.70;87.99;99521.47;1775337;80;21070;-80
2021/11/29 04:55:42;;;;;;;17.00;13.25;;;;;;;11.68;87.83;99513.37;1775667;80;21107;-81
2021/11/29 04:58:09;;;;;;;23.20;15.60;;;;;;;11.64;87.81;99506.70;1775374;80;20933;-80
2021/11/29 05:00:37;;;;;;;25.17;17.05;;;;;;;11.58;87.84;99502.31;1775535;80;21644;-80
2021/11/29 05:03:04;;;;;;;27.87;17.62;;;;;;;11.56;87.91;99502.06;1775350;80;20967;-80
2021/11/29 05:05:30;;;;;;;27.75;18.62;;;;;;;11.52;87.87;99484.91;1775661;80;20892;-80
2021/11/29 05:07:59;;;;;;;33.13;20.50;;;;;;;11.51;87.92;99484.55;1775344;80;22050;-80
2021/11/29 05:10:25;;;;;;;34.73;20.40;;;;;;;11.51;87.91;99493.73;1775663;80;21505;-80
2021/11/29 05:12:53;;;;;;;37.42;23.38;;;;;;;11.50;87.77;99487.66;1776532;80;21010;-78
2021/11/29 05:15:22;;;;;;;44.05;23.98;;;;;;;11.47;87.74;99489.69;1775706;80;21018;-79
2021/11/29 05:17:49;;;;;;;44.58;27.00;;;;;;;11.43;87.83;99490.89;1775477;80;20876;-81
2021/11/29 05:20:16;;;;;;;48.73;29.65;;;;;;;11.40;87.89;99477.55;1775665;80;21139;-78
2021/11/29 05:22:43;;;;;;;52.45;31.17;;;;;;;11.37;87.92;99493.07;1775250;80;21011;-79
2021/11/29 05:25:09;;;;;;;47.50;29.75;;;;;;;11.38;87.90;99493.44;1775847;80;21339;-80
2021/11/29 05:27:37;;;;;;;53.38;31.48;;;;;;;11.37;87.94;99504.05;1776308;80;21097;-81
2021/11/29 05:30:05;;;;;;;60.78;33.85;;;;;;;11.35;87.93;99500.72;1783635;80;20971;-79
2021/11/29 05:32:34;;;;;;;57.30;34.25;;;;;;;11.34;88.00;99492.02;1783558;80;20927;-80
2021/11/29 05:35:01;;;;;;;58.15;33.05;;;;;;;11.35;88.08;99486.28;1783673;80;20849;-79
2021/11/29 05:37:28;;;;;;;69.27;38.35;;;;;;;11.33;88.21;99492.14;1783772;80;20992;-80
2021/11/29 05:39:55;;;;;;;69.32;39.80;;;;;;;11.33;88.36;99499.52;1784007;80;20939;-80
2021/11/29 05:42:22;;;;;;;74.65;41.92;;;;;;;11.33;88.46;99494.77;1783623;80;20888;-81
2021/11/29 05:44:50;;;;;;;66.10;41.58;;;;;;;11.33;88.53;99505.26;1783801;80;21080;-82
2021/11/29 05:47:18;;;;;;;70.90;43.05;;;;;;;11.30;88.62;99495.84;1783517;80;20896;-81
2021/11/29 05:49:45;;;;;;;72.32;42.78;;;;;;;11.29;88.77;99504.66;1783975;80;20935;-82
2021/11/29 05:52:12;;;;;;;73.12;42.75;;;;;;;11.27;88.85;99498.73;1783814;80;21472;-80
2021/11/29 05:54:40;;;;;;;78.02;43.17;;;;;;;11.25;88.90;99498.47;1783701;80;20924;-80
2021/11/29 05:57:09;;;;;;;71.62;40.50;;;;;;;11.23;89.05;99500.38;1783781;80;20852;-81
2021/11/29 05:59:36;;;;;;;70.32;40.08;;;;;;;11.24;89.13;99492.89;1784108;80;20852;-82
2021/11/29 06:02:03;;;;;;;63.83;38.50;;;;;;;11.20;89.24;99483.96;1784017;80;21006;-80
2021/11/29 06:04:30;;;;;;;62.40;36.33;;;;;;;11.20;89.26;99490.97;1784447;80;20888;-79
2021/11/29 06:06:57;;;;;;;58.23;35.58;;;;;;;11.17;89.36;99495.17;1784535;80;20896;-81
2021/11/29 06:09:25;;;;;;;56.20;34.40;;;;;;;11.16;89.45;99492.17;1783858;80;21526;-80
2021/11/29 06:11:52;;;;;;;57.50;33.80;;;;;;;11.16;89.37;99476.43;1783635;80;20916;-80
2021/11/29 06:14:19;;;;;;;47.48;30.43;;;;;;;11.16;89.44;99481.22;1784014;80;20943;-80
2021/11/29 06:16:48;;;;;;;50.63;28.05;;;;;;;11.15;89.48;99486.59;1783668;80;20889;-81
2021/11/29 06:19:16;;;;;;;27.02;18.40;;;;;;;11.13;89.42;99483.25;1783853;80;20991;-80
2021/11/29 06:21:43;;;;;;;22.13;15.40;;;;;;;11.13;89.50;99480.63;1784007;80;21041;-82
2021/11/29 06:24:10;;;;;;;18.82;12.30;;;;;;;11.10;89.58;99471.22;1783815;80;20865;-81
2021/11/29 06:26:37;;;;;;;13.40;11.38;;;;;;;11.08;89.60;99469.19;1783781;80;20940;-81
2021/11/29 06:29:05;;;;;;;14.85;10.48;;;;;;;11.08;89.69;99461.80;1783796;80;20924;-82
2021/11/29 06:31:32;;;;;;;14.60;11.75;;;;;;;11.09;89.75;99462.15;1783796;80;20880;-81
2021/11/29 06:33:59;;;;;;;12.45;10.72;;;;;;;11.06;89.73;99461.09;1783921;80;21773;-81
2021/11/29 06:36:27;;;;;;;13.78;11.28;;;;;;;11.08;89.80;99469.68;1783522;80;20970;-80
2021/11/29 06:38:56;;;;;;;13.32;11.12;;;;;;;11.07;89.76;99475.41;1784006;80;20955;-81
2021/11/29 06:41:23;;;;;;;14.50;12.78;;;;;;;11.08;89.73;99472.30;1783823;80;20959;-80
2021/11/29 06:43:51;;;;;;;21.85;17.95;;;;;;;11.07;89.63;99476.72;1783807;80;20911;-83
2021/11/29 06:46:18;;;;;;;15.18;12.03;;;;;;;11.08;89.57;99470.98;1783858;80;21810;-78
2021/11/29 06:48:44;;;;;;;13.22;10.95;;;;;;;11.05;89.43;99468.14;1783749;80;20978;-80
2021/11/29 06:51:11;;;;;;;16.02;12.55;;;;;;;11.03;89.37;99469.19;1783767;80;20932;-82
2021/11/29 06:53:40;;;;;;;16.95;12.25;;;;;;;11.02;89.41;99474.92;1783995;80;20904;-80
2021/11/29 06:56:07;;;;;;;13.88;11.40;;;;;;;11.02;89.34;99470.98;1783891;80;20877;-82
2021/11/29 06:58:36;;;;;;;14.03;12.15;;;;;;;11.02;89.15;99457.88;1784182;80;21014;-80
2021/11/29 07:01:04;;;;;;;21.20;13.45;;;;;;;11.02;89.05;99451.80;1784808;80;20959;-82
2021/11/29 07:03:31;;;;;;;17.98;12.95;;;;;;;11.01;89.00;99452.29;1783807;80;20853;-82
2021/11/29 07:05:58;;;;;;;16.48;13.05;;;;;;;11.01;89.00;99454.91;1783780;80;20936;-79
2021/11/29 07:08:25;;;;;;;16.10;13.62;;;;;;;11.01;88.93;99440.48;1783973;80;20932;-80
2021/11/29 07:10:52;;;;;;;17.48;12.03;;;;;;;11.03;88.90;99445.13;1783847;80;21765;-80
2021/11/29 07:13:19;;;;;;;16.37;12.60;;;;;;;11.05;88.83;99453.71;1783547;80;20920;-81
2021/11/29 07:15:46;;;;;;;15.18;12.03;;;;;;;11.06;88.72;99447.98;1783811;80;21002;-80
2021/11/29 07:18:14;;;;;;;13.68;11.20;;;;;;;11.07;88.69;99430.81;1784085;80;21505;-79
2021/11/29 07:20:41;;;;;;;14.43;10.82;;;;;;;11.10;88.61;99424.47;1783767;80;20920;-77
2021/11/29 07:23:08;;;;;;;16.50;12.28;;;;;;;11.11;88.51;99416.45;1783862;80;21111;-77
2021/11/29 07:25:34;;;;;;;16.32;11.00;;;;;;;11.14;88.40;99420.65;1783649;80;21413;-80
2021/11/29 07:28:01;;;;;;;13.28;9.95;;;;;;;11.19;88.35;99421.09;1784320;80;20892;-77
2021/11/29 07:30:29;;;;;;;12.37;9.03;;;;;;;11.22;88.03;99412.13;1784544;80;20892;-78
2021/11/29 07:32:56;;;;;;;15.10;11.30;;;;;;;11.19;87.74;99404.86;1784302;80;20924;-79
2021/11/29 07:35:25;;;;;;;13.13;9.48;;;;;;;11.19;87.68;99403.55;1784123;80;22145;-81
2021/11/29 07:37:52;;;;;;;11.80;10.13;;;;;;;11.22;87.69;99405.58;1784290;80;20928;-77
2021/11/29 07:40:19;;;;;;;12.55;9.18;;;;;;;11.24;87.46;99399.72;1784271;80;20849;-78
2021/11/29 07:42:48;;;;;;;12.20;9.55;;;;;;;11.26;87.28;99394.70;1784330;80;20928;-81
2021/11/29 07:45:14;;;;;;;12.50;8.58;;;;;;;11.29;87.16;99392.30;1784293;80;20983;-80
2021/11/29 07:47:43;;;;;;;13.20;10.40;;;;;;;11.31;87.01;99396.45;1784463;80;20928;-81
2021/11/29 07:50:14;;;;;;;11.97;10.78;;;;;;;11.33;86.90;99395.84;1784275;80;20904;-76
2021/11/29 07:52:44;;;;;;;13.78;10.58;;;;;;;11.35;86.73;99389.99;1784229;80;20908;-81
2021/11/29 07:55:12;;;;;;;12.15;10.88;;;;;;;11.38;86.66;99379.72;1785461;80;20979;-82
2021/11/29 07:57:39;;;;;;;11.80;10.00;;;;;;;11.41;86.58;99371.12;1785440;80;20892;-85
2021/11/29 08:00:12;;;;;;;12.58;10.10;;;;;;;11.46;86.37;99368.59;1784509;80;21145;-79
2021/11/29 08:02:39;;;;;;;11.12;10.00;;;;;;;11.51;86.09;99385.61;1784062;80;20928;-79
2021/11/29 08:05:08;;;;;;;11.75;10.05;;;;;;;11.55;85.98;99377.83;1783760;80;20935;-77
2021/11/29 08:07:35;;;;;;;11.70;10.40;;;;;;;11.57;85.66;99384.27;1784105;80;20888;-82
2021/11/29 08:10:04;;;;;;;11.55;10.15;;;;;;;11.60;85.60;99378.30;1784128;80;21318;-81
2021/11/29 08:12:31;;;;;;;11.25;9.15;;;;;;;11.63;85.25;99374.57;1784136;80;21821;-80
2021/11/29 08:14:58;;;;;;;16.42;12.00;;;;;;;11.64;85.16;99367.52;1783775;80;20876;-79
2021/11/29 08:17:25;;;;;;;12.75;8.78;;;;;;;11.63;85.07;99360.13;1784102;80;20860;-80
2021/11/29 08:19:54;;;;;;;8.55;7.75;;;;;;;11.64;84.95;99360.95;1783907;80;20904;-81
2021/11/29 08:22:20;;;;;;;14.38;8.60;;;;;;;11.67;84.93;99344.92;1784393;80;20916;-80
2021/11/29 08:24:47;;;;;;;13.22;7.40;;;;;;;11.71;84.89;99342.39;1783946;80;21123;-78
2021/11/29 08:27:14;;;;;;;12.78;7.97;;;;;;;11.75;84.86;99336.75;1783809;80;21373;-79
2021/11/29 08:29:41;;;;;;;10.45;7.35;;;;;;;11.78;85.02;99327.31;1778634;80;20932;-80
2021/11/29 08:32:08;;;;;;;11.25;7.53;;;;;;;11.79;85.21;99321.08;1775560;80;20893;-79
2021/11/29 08:34:39;;;;;;;9.98;6.53;;;;;;;11.81;85.29;99328.84;1775422;80;20955;-78
2021/11/29 08:37:08;;;;;;;10.10;7.17;;;;;;;11.82;85.37;99316.04;1775535;80;21035;-79
2021/11/29 08:39:35;;;;;;;9.13;6.65;;;;;;;11.82;85.34;99318.17;1775286;80;21541;-79
2021/11/29 08:42:03;;;;;;;8.90;7.28;;;;;;;11.79;85.33;99326.33;1775434;80;20904;-80
2021/11/29 08:44:30;;;;;;;10.90;8.38;;;;;;;11.76;85.55;99323.13;1775235;80;21406;-79
2021/11/29 08:46:58;;;;;;;8.80;7.92;;;;;;;11.73;85.73;99312.41;1775470;80;20916;-79
2021/11/29 08:49:25;;;;;;;13.43;8.60;;;;;;;11.71;85.90;99288.07;1775357;80;21105;-79
2021/11/29 08:51:53;;;;;;;6.85;6.15;;;;;;;11.70;86.01;99267.22;1776015;80;20846;-80
2021/11/29 08:54:20;;;;;;;6.92;6.17;;;;;;;11.72;86.09;99266.11;1775347;80;21347;-79
2021/11/29 08:56:47;;;;;;;13.35;8.60;;;;;;;11.73;85.99;99250.69;1775777;80;20960;-80
2021/11/29 08:59:17;;;;;;;13.08;8.63;;;;;;;11.75;85.95;99263.70;1775735;80;20968;-79
2021/11/29 09:01:45;;;;;;;16.37;10.68;;;;;;;11.76;85.62;99270.60;1776057;80;21128;-79
2021/11/29 09:04:13;;;;;;;14.90;9.85;;;;;;;11.74;85.25;99283.88;1775358;80;20916;-80
2021/11/29 09:06:40;;;;;;;14.87;10.15;;;;;;;11.70;85.18;99267.22;1776075;80;21061;-81
2021/11/29 09:09:07;;;;;;;15.50;9.80;;;;;;;11.66;85.07;99263.19;1775443;80;20992;-81
2021/11/29 09:11:34;;;;;;;15.58;9.60;;;;;;;11.65;85.03;99257.56;1776060;80;20964;-79
2021/11/29 09:14:01;;;;;;;13.05;8.55;;;;;;;11.64;85.02;99256.74;1775436;80;21789;-80
2021/11/29 09:16:28;;;;;;;18.12;10.00;;;;;;;11.65;84.90;99243.98;1775367;80;20841;-79
2021/11/29 09:18:55;;;;;;;10.85;8.85;;;;;;;11.64;84.73;99226.55;1775235;80;20896;-80
2021/11/29 09:21:23;;;;;;;10.72;8.35;;;;;;;11.64;84.58;99221.78;1775282;80;20877;-80
2021/11/29 09:23:49;;;;;;;12.50;9.28;;;;;;;11.64;84.44;99212.59;1775445;80;21386;-78
2021/11/29 09:26:16;;;;;;;10.58;8.80;;;;;;;11.65;84.17;99203.73;1775388;80;22143;-78
2021/11/29 09:28:44;;;;;;;11.12;7.00;;;;;;;11.68;84.13;99196.44;1775097;80;20995;-79
2021/11/29 09:31:11;;;;;;;14.38;8.95;;;;;;;11.68;83.94;99182.48;1775339;80;20924;-78
2021/11/29 09:33:38;;;;;;;12.47;8.20;;;;;;;11.69;83.74;99182.33;1775242;80;21450;-79
2021/11/29 09:36:05;;;;;;;13.95;9.78;;;;;;;11.69;83.59;99163.94;1775324;80;20972;-80
2021/11/29 09:38:32;;;;;;;13.13;9.48;;;;;;;11.73;83.45;99155.33;1775336;80;21184;-79
2021/11/29 09:43:54;;;;;;;19.90;13.40;;;;;;;11.87;82.92;99143.59;1798953;79;22575;-78
2021/11/29 09:46:22;;;;;;;22.42;12.85;;;;;;;11.82;82.45;99138.25;1758696;80;20911;-79
2021/11/29 09:48:49;;;;;;;23.35;13.95;;;;;;;11.82;82.30;99119.05;1758766;81;21510;-80
2021/11/29 09:51:17;;;;;;;21.12;13.85;;;;;;;11.86;82.23;99109.11;1758581;81;20952;-80
2021/11/29 09:53:44;;;;;;;27.48;14.23;;;;;;;11.89;82.07;99097.03;1758342;81;20908;-82
2021/11/29 09:56:11;;;;;;;21.93;13.50;;;;;;;11.92;82.03;99101.53;1758459;80;20936;-78
2021/11/29 09:58:38;;;;;;;32.95;15.30;;;;;;;11.95;81.96;99093.37;1758208;81;21469;-83
2021/11/29 10:01:05;;;;;;;23.50;12.58;;;;;;;11.99;81.81;99082.11;1758450;80;21130;-80
2021/11/29 10:03:32;;;;;;;20.88;12.13;;;;;;;12.03;81.62;99072.49;1758434;81;21379;-78
2021/11/29 10:05:59;;;;;;;21.23;11.18;;;;;;;12.06;81.65;99050.85;1750887;81;20936;-79
2021/11/29 10:08:34;;;;;;;24.00;9.78;;;;;;;12.06;81.30;99050.85;1750048;80;21537;-80
2021/11/29 10:11:05;;;;;;;17.70;10.70;;;;;;;12.06;81.32;99039.03;1750297;80;20885;-80
2021/11/29 10:13:31;;;;;;;15.90;9.25;;;;;;;12.05;81.21;99027.70;1749993;80;21143;-78
2021/11/29 10:15:59;;;;;;;17.25;9.90;;;;;;;12.05;81.26;99022.44;1721065;82;20939;-79
2021/11/29 10:18:27;;;;;;;19.77;10.45;;;;;;;12.02;81.29;99023.52;1750050;82;20984;-80
2021/11/29 10:21:06;;;;;;;21.05;9.75;;;;;;;12.02;81.34;99030.59;1750071;82;20900;-79
2021/11/29 10:23:37;;;;;;;18.98;9.43;;;;;;;11.99;81.55;99046.15;1750148;82;20845;-80
2021/11/29 10:26:12;;;;;;;17.77;8.85;;;;;;;11.97;81.88;99053.83;1750411;82;21111;-78
2021/11/29 10:28:42;;;;;;;16.93;8.98;;;;;;;11.95;82.23;99050.02;1745809;80;20971;-79
2021/11/29 10:31:25;;;;;;;14.75;9.00;;;;;;;11.91;82.62;99029.42;1750020;82;20936;-79
2021/11/29 10:34:17;;;;;;;16.87;9.33;;;;;;;11.90;82.94;99011.53;1750020;82;20885;-80
2021/11/29 10:36:54;;;;;;;17.35;8.30;;;;;;;11.89;83.45;99006.41;1750102;82;20913;-80
2021/11/29 10:39:28;;;;;;;18.82;8.23;;;;;;;11.88;83.81;99010.02;1750097;82;21138;-81
2021/11/29 10:41:57;;;;;;;17.10;9.55;;;;;;;11.87;84.13;99005.69;1750295;81;20944;-80
2021/11/29 10:44:33;;;;;;;16.62;9.30;;;;;;;11.86;84.41;98970.72;1751052;80;20872;-84
2021/11/29 10:47:04;;;;;;;17.77;8.60;;;;;;;11.84;84.56;98947.70;1751720;82;20881;-80
2021/11/29 10:49:37;;;;;;;15.32;7.70;;;;;;;11.83;84.83;98942.94;1750978;82;20920;-81
2021/11/29 10:52:07;;;;;;;19.92;9.23;;;;;;;11.84;84.98;98918.81;1751106;80;20975;-81
2021/11/29 10:54:38;;;;;;;16.80;10.30;;;;;;;11.86;85.26;98915.56;1750369;82;20872;-80
2021/11/29 10:57:06;;;;;;;17.07;9.60;;;;;;;11.91;85.34;98909.41;1750526;82;21078;-82
2021/11/29 10:59:39;;;;;;;17.12;8.50;;;;;;;11.94;85.37;98889.45;1750145;82;21422;-79
2021/11/29 11:02:17;;;;;;;16.05;8.80;;;;;;;11.98;85.22;98886.03;1750583;82;20939;-80
2021/11/29 11:04:48;;;;;;;24.80;12.45;;;;;;;12.00;85.23;98870.95;1750578;82;21619;-81
2021/11/29 11:07:24;;;;;;;21.50;9.68;;;;;;;12.05;85.21;98853.44;1750406;82;20904;-80
2021/11/29 11:09:57;;;;;;;24.98;11.00;;;;;;;12.10;85.18;98850.73;1750640;80;20928;-79
2021/11/29 11:12:28;;;;;;;25.45;10.28;;;;;;;12.14;84.96;98845.53;1750424;80;20900;-80
2021/11/29 11:15:00;;;;;;;22.62;11.68;;;;;;;12.18;84.66;98849.98;1750435;82;21398;-80
2021/11/29 11:17:29;;;;;;;27.52;10.35;;;;;;;12.19;84.27;98859.05;1750353;81;21987;-79
2021/11/29 11:20:09;;;;;;;20.80;10.85;;;;;;;12.21;83.92;98851.03;1750472;82;21327;-78
2021/11/29 11:22:49;;;;;;;19.82;9.60;;;;;;;12.24;83.72;98828.39;1750164;80;21709;-78
2021/11/29 11:25:23;;;;;;;30.77;12.40;;;;;;;12.28;83.05;98803.97;1750255;80;20896;-78
2021/11/29 11:28:06;;;;;;;22.40;11.75;;;;;;;12.32;82.37;98779.86;1750193;82;20881;-80
2021/11/29 11:30:36;;;;;;;19.23;10.43;;;;;;;12.39;81.79;98783.54;1750322;82;21139;-78